»·PEaware :: N333ZS O42-KINS

N333ZS :: O42-KINS

FLIGHT INFORMATION

Flight Status: Arrived
Operator: Privately registered:
United States
More flights under this callsign
Pilot: Judd H. (29974)
Aircraft: CESSNA 182 SKYLANE
(C182)
More flights by this aircraft type
Origin: O42 Woodlake
United States
Destination: KINS Indian Springs AF Aux
United States
More flights between these airports :: More routes between these airports
Route: 026 BTY
File this flight plan on PilotEdge
Remarks:
Altitude:
(Current/Filed)
13,000ft
Speed:
(Current/Filed)
120kts
Departed: 18-Sep-20 01:07 PM
Arrived: 18-Sep-20 02:49 PM
Distance/Time
Traveled:
166nm/1:41
Distance/Time
To Go:
Arrived

Flight Plot

Page will automatically refresh every two minutes.

Flight plan parsing failed; only flown route is shown


Map Options




Map Legend


Flown Route
Filed Route
Departure Airport
Arrival Airport
Navaid (VOR, NDB)
Fix

Horizontal Profiles

Position Reports

Time Latitude Longitude Heading Altitude Ground
Speed
18-Sep-20 12:55 36.398322 -119.102322 269 428ft 0kts
18-Sep-20 12:56 36.398322 -119.102322 269 428ft 0kts
18-Sep-20 12:57 36.398322 -119.102322 269 428ft 0kts
18-Sep-20 12:57 36.398322 -119.102322 269 428ft 0kts
18-Sep-20 12:59 36.398322 -119.102325 269 428ft 0kts
18-Sep-20 13:00 36.398322 -119.102333 269 428ft 0kts
18-Sep-20 13:00 36.398322 -119.102339 269 428ft 0kts
18-Sep-20 13:01 36.398322 -119.102343 269 428ft 0kts
18-Sep-20 13:02 36.398322 -119.102344 269 428ft 0kts
18-Sep-20 13:03 36.398322 -119.102345 269 428ft 0kts
18-Sep-20 13:04 36.398820 -119.102452 272 428ft 0kts
18-Sep-20 13:05 36.398820 -119.102454 272 428ft 0kts
18-Sep-20 13:06 36.398409 -119.125440 269 925ft 101kts
18-Sep-20 13:07 36.408819 -119.154194 328 1800ft 99kts
18-Sep-20 13:08 36.411461 -119.155938 330 1925ft 97kts
18-Sep-20 13:09 36.411461 -119.155938 330 1925ft 97kts
18-Sep-20 13:10 36.419786 -119.161704 330 2220ft 101kts
18-Sep-20 13:11 36.442106 -119.167253 19 2842ft 117kts
18-Sep-20 13:12 36.459742 -119.134192 76 3712ft 123kts
18-Sep-20 13:13 36.454593 -119.092373 109 4489ft 123kts
18-Sep-20 13:14 36.442823 -119.052237 114 5206ft 124kts
18-Sep-20 13:15 36.429004 -119.012488 109 5845ft 127kts
18-Sep-20 13:16 36.422492 -118.970066 83 6547ft 128kts
18-Sep-20 13:17 36.432464 -118.928098 70 7222ft 127kts
18-Sep-20 13:18 36.444326 -118.887228 78 7855ft 127kts
18-Sep-20 13:19 36.453292 -118.844539 76 8438ft 128kts
18-Sep-20 13:20 36.458313 -118.800701 86 8998ft 129kts
18-Sep-20 13:21 36.477647 -118.765603 34 9445ft 128kts
18-Sep-20 13:22 36.501386 -118.732459 63 9892ft 133kts
18-Sep-20 13:23 36.514346 -118.689317 71 10327ft 133kts
18-Sep-20 13:24 36.521575 -118.644840 81 10910ft 124kts
18-Sep-20 13:25 36.533485 -118.606613 52 11530ft 115kts
18-Sep-20 13:26 36.548458 -118.572350 59 12108ft 112kts
18-Sep-20 13:27 36.565587 -118.539899 39 12516ft 115kts
18-Sep-20 13:28 36.586118 -118.505602 63 12650ft 134kts
18-Sep-20 13:29 36.586165 -118.458356 105 12748ft 143kts
18-Sep-20 13:30 36.566378 -118.415411 127 12888ft 144kts
18-Sep-20 13:31 36.539403 -118.377455 128 12948ft 149kts
18-Sep-20 13:32 36.512451 -118.338222 126 12980ft 149kts
18-Sep-20 13:33 36.494412 -118.293272 86 12943ft 147kts
18-Sep-20 13:34 36.497385 -118.240974 86 12856ft 153kts
18-Sep-20 13:35 36.502314 -118.187405 50 12524ft 165kts
18-Sep-20 13:36 36.539543 -118.165495 356 10473ft 141kts
18-Sep-20 13:37 36.573305 -118.139187 47 8959ft 161kts
18-Sep-20 13:38 36.597234 -118.092149 62 6916ft 160kts
18-Sep-20 13:39 36.588239 -118.055572 187 5346ft 116kts
18-Sep-20 13:40 36.560204 -118.060577 186 4797ft 97kts
18-Sep-20 13:41 36.570189 -118.045613 351 4285ft 102kts
18-Sep-20 13:42 36.591160 -118.046459 6 3683ft 10kts
18-Sep-20 13:43 36.592620 -118.047026 176 3683ft 16kts
18-Sep-20 13:44 36.590530 -118.049910 270 3683ft 21kts
18-Sep-20 13:45 36.590522 -118.056140 282 3683ft 8kts
18-Sep-20 13:46 36.590626 -118.056308 331 3683ft 0kts
18-Sep-20 13:47 36.590627 -118.056309 331 3683ft 0kts
18-Sep-20 13:48 36.590475 -118.054052 87 3683ft 15kts
18-Sep-20 13:49 36.590618 -118.046938 24 3683ft 7kts
18-Sep-20 13:50 36.593048 -118.046518 177 3683ft 26kts
18-Sep-20 13:51 36.574001 -118.041594 129 4052ft 95kts
18-Sep-20 13:52 36.559965 -118.007955 118 4484ft 130kts
18-Sep-20 13:53 36.543866 -117.966748 118 4898ft 128kts
18-Sep-20 13:54 36.528949 -117.927728 118 5476ft 121kts
18-Sep-20 13:55 36.514937 -117.890516 118 6077ft 116kts
18-Sep-20 13:56 36.501551 -117.854510 118 6676ft 113kts
18-Sep-20 13:57 36.488433 -117.818829 118 7174ft 120kts
18-Sep-20 13:58 36.474450 -117.776515 105 7200ft 139kts
18-Sep-20 13:59 36.487032 -117.735407 57 7633ft 134kts
18-Sep-20 14:00 36.508590 -117.698822 54 8110ft 124kts
18-Sep-20 14:01 36.529451 -117.665858 53 8694ft 118kts
18-Sep-20 14:02 36.550007 -117.634721 52 9297ft 114kts
18-Sep-20 14:03 36.571922 -117.601475 54 9477ft 138kts
18-Sep-20 14:04 36.595878 -117.561713 54 9466ft 146kts
18-Sep-20 14:05 36.620109 -117.520553 55 9466ft 147kts
18-Sep-20 14:06 36.644890 -117.479650 55 9468ft 147kts
18-Sep-20 14:07 36.669296 -117.438553 55 9468ft 147kts
18-Sep-20 14:08 36.693610 -117.397663 55 9469ft 147kts
18-Sep-20 14:09 36.715421 -117.355140 79 9465ft 144kts
18-Sep-20 14:10 36.722217 -117.306243 85 9468ft 142kts
18-Sep-20 14:11 36.728351 -117.256427 85 9468ft 148kts
18-Sep-20 14:12 36.734587 -117.205340 85 9465ft 150kts
18-Sep-20 14:13 36.741173 -117.153575 85 9470ft 151kts
18-Sep-20 14:14 36.747746 -117.101910 85 9470ft 151kts
18-Sep-20 14:15 36.754325 -117.050377 85 9463ft 152kts
18-Sep-20 14:16 36.760994 -116.997783 85 9455ft 153kts
18-Sep-20 14:17 36.767681 -116.945311 85 9455ft 153kts
18-Sep-20 14:18 36.774434 -116.892714 85 9456ft 153kts
18-Sep-20 14:19 36.781684 -116.840008 84 9427ft 160kts
18-Sep-20 14:20 36.788088 -116.784526 89 9430ft 162kts
18-Sep-20 14:21 36.793760 -116.728407 89 9427ft 163kts
18-Sep-20 14:22 36.795456 -116.672741 99 9426ft 159kts
18-Sep-20 14:23 36.788453 -116.619289 109 9428ft 155kts
18-Sep-20 14:24 36.779749 -116.566435 110 9427ft 154kts
18-Sep-20 14:25 36.768355 -116.515217 113 9428ft 153kts
18-Sep-20 14:26 36.756742 -116.463791 113 9430ft 152kts
18-Sep-20 14:27 36.744591 -116.413357 113 9428ft 151kts
18-Sep-20 14:28 36.732642 -116.363341 113 9429ft 150kts
18-Sep-20 14:29 36.720677 -116.313252 113 9430ft 150kts
18-Sep-20 14:30 36.708764 -116.263239 113 9429ft 150kts
18-Sep-20 14:31 36.696813 -116.213051 113 9429ft 150kts
18-Sep-20 14:32 36.691508 -116.196437 114 9427ft 150kts
18-Sep-20 14:33 36.674001 -116.149569 113 9428ft 149kts
18-Sep-20 14:34 36.656369 -116.101858 113 9106ft 155kts
18-Sep-20 14:35 36.638312 -116.052866 113 8406ft 155kts
18-Sep-20 14:36 36.620403 -116.004286 113 7703ft 153kts
18-Sep-20 14:37 36.606332 -115.955052 113 6972ft 143kts
18-Sep-20 14:39 36.588177 -115.916180 142 6270ft 127kts
18-Sep-20 14:40 36.561199 -115.887072 143 5583ft 129kts
18-Sep-20 14:41 36.547628 -115.845587 103 4892ft 136kts
18-Sep-20 14:42 36.541542 -115.802306 91 4721ft 116kts
18-Sep-20 14:43 36.555977 -115.765339 60 4481ft 122kts
18-Sep-20 14:44 36.566854 -115.727926 80 4370ft 111kts
18-Sep-20 14:45 36.571785 -115.690029 89 4244ft 110kts
18-Sep-20 14:46 36.570505 -115.650431 103 4029ft 112kts
18-Sep-20 14:47 36.580087 -115.634654 309 3865ft 109kts
18-Sep-20 14:48 36.583517 -115.665289 268 3192ft 75kts
18-Sep-20 14:49 36.583110 -115.677044 185 3137ft 10kts
18-Sep-20 14:50 36.581697 -115.679224 275 3137ft 6kts
18-Sep-20 14:51 36.581702 -115.679350 270 3137ft 0kts

Navigation Log

Ident Type
Flight plan parsing failed, navigation log unavailable